Terminal Aerodrome Forecast
Issued by NWS

Home | Current Version | Previous Version | Text Only | Print | Product List | Glossary On
Versions: 1 2 3 4 5 6 7 8 9 10 11 12 13 14
161
FTUS46 KMTR 182328
TAFSNS
TAF
KSNS 182328Z 1900/1924 28018G25KT P6SM SCT030
     FM190400 26012KT P6SM BKN030
     FM191100 27008KT P6SM VCSH OVC020
     FM191200 26010KT P6SM OVC020
      TEMPO 1912/1916 -SHRA OVC020
     FM191600 26008KT P6SM VCSH BKN040
     FM191900 27015KT P6SM SCT040=

USA.gov is the U.S. government's official web portal to all federal, state and local government web resources and services.